Terminal Aerodrome Forecast
Issued by NWS Portland, OR

Home | Current Version | Previous Version | Text Only | Print | Product List | Glossary On
Versions: 1 2 3 4 5 6 7 8 9 10 11 12 13 14 15
000
FTUS46 KPQR 240633 AAA
TAFEUG
TAF AMD
KEUG 240633Z 2407/2506 19014KT P6SM -RA SCT035 OVC050
     FM241200 18010KT P6SM -RA SCT015 BKN025 OVC035
      TEMPO 2415/2419 BKN015 OVC025
     FM242100 19014G20KT 5SM -SHRA SCT012 BKN020 OVC030
     FM250200 18007KT P6SM -SHRA BKN035 OVC050=

USA.gov is the U.S. government's official web portal to all federal, state and local government web resources and services.